Aviation Digital Data Service (ADDS)

Output produced by METARs form (2155 UTC 02 August 2021)
found at http://www.aviationweather.gov/metar/data/
 
Forecast for: ZKPY (PYONGYANG/SUNAN , CN)
Text: TAF ZKPY 022120Z 0300/0324 17004MPS 9999 SCT020 BKN030 TX28/0306Z TN23/0320Z
Forecast period: 0000 UTC 03 August 2021 to 0000 UTC 04 August 2021
Forecast type: FROM: standard forecast or significant change
Winds: from the S (170 degrees) at 9 MPH (8 knots; 4.1 m/s)
Visibility: 6 or more miles (10+ km)
Ceiling: 3000 feet AGL
Clouds: scattered clouds at 2000 feet AGL
broken clouds at 3000 feet AGL
Weather: no significant weather forecast for this period
Text: TEMPO 0300/0312 4000 -SHRA SCT020CB OVC027
Forecast period: 0000 to 1200 UTC 03 August 2021
Forecast type: TEMPORARY: The following changes expected for less than half the time period
Visibility: 2.49 miles (4.01 km)
Ceiling: 2700 feet AGL
Clouds: scattered clouds at 2000 feet AGL
overcast cloud deck at 2700 feet AGL
Weather: -SHRA  (light rain showers)